Alpine Persefone — A8MS7 — position and weather

sailwx.info

Track history (hours):
 
Tides and Currents Weather Stations Pressure Air Temp Water Temp Dewpoint Dewpoint Depression Visibility Wind Speed Wind Dir Waves Ship Positions

Alpine Persefone

Last reported at 2014-Oct-31 23:15 UTC. Time now 2014-Nov-01 13:21 UTC.
Position N 35°59' W 005°11'.

Length 226 m; draft 8.2 m.

Type: Tanker. MMSI: 636013411.

Date/timePositionNaut miles runAvg speedWind from/ knotsBaromVisibWave heightAir tempDewpointWater temp
2014-Oct-31 23:15N 35°59' W 005°11'1014.3
2014-Oct-31 22:33N 35°58' W 005°23'26613.3
2014-Oct-31 02:33N 35°17' W 010°47'1413.8
2014-Oct-31 01:33N 35°15' W 011°04'1413.8
2014-Oct-31 00:33N 35°12' W 011°20'1413.8
2014-Oct-30 23:33N 35°10' W 011°37'1414.3
2014-Oct-30 22:33N 35°08' W 011°54'1414.3
2014-Oct-30 21:33N 35°05' W 012°11'3314.5
2014-Oct-30 19:18N 35°00' W 012°51'  
Track history (hours):
 
Tides and Currents Weather Stations Pressure Air Temp Water Temp Dewpoint Dewpoint Depression Visibility Wind Speed Wind Dir Waves Ship Positions

Alpine Persefone

Last reported at 2014-Oct-31 23:15 UTC. Time now 2014-Nov-01 13:21 UTC.
Position N 35°59' W 005°11'.

Length 226 m; draft 8.2 m.

Type: Tanker. MMSI: 636013411.

Date/timePositionNaut miles runAvg speedWind from/ knotsBaromVisibWave heightAir tempDewpointWater temp
2014-Oct-31 23:15N 35°59' W 005°11'1014.3
2014-Oct-31 22:33N 35°58' W 005°23'26613.3
2014-Oct-31 02:33N 35°17' W 010°47'1413.8
2014-Oct-31 01:33N 35°15' W 011°04'1413.8
2014-Oct-31 00:33N 35°12' W 011°20'1413.8
2014-Oct-30 23:33N 35°10' W 011°37'1414.3
2014-Oct-30 22:33N 35°08' W 011°54'1414.3
2014-Oct-30 21:33N 35°05' W 012°11'3314.5
2014-Oct-30 19:18N 35°00' W 012°51'  

Dump ship's entire track history